createdAt,value
2019-02-22T00:05:05.442Z,19.43
2019-02-22T00:10:25.554Z,19.27
2019-02-22T00:15:44.588Z,18.80
2019-02-22T00:21:03.215Z,20.40
2019-02-22T00:26:21.535Z,19.67
2019-02-22T00:31:40.260Z,19.37
2019-02-22T00:36:58.972Z,18.30
2019-02-22T00:42:17.701Z,17.57
2019-02-22T00:47:36.399Z,19.17
2019-02-22T00:52:54.897Z,20.20
2019-02-22T00:58:13.941Z,19.27
2019-02-22T01:03:33.032Z,22.30
2019-02-22T01:08:53.213Z,22.27
2019-02-22T01:14:11.685Z,22.57
2019-02-22T01:19:31.215Z,22.73
2019-02-22T01:24:49.673Z,22.60
2019-02-22T01:30:08.665Z,20.73
2019-02-22T01:35:27.498Z,20.90
2019-02-22T01:40:46.519Z,21.77
2019-02-22T01:46:05.622Z,24.33
2019-02-22T01:51:25.087Z,18.63
2019-02-22T01:56:43.434Z,19.47
2019-02-22T02:02:02.542Z,20.53
2019-02-22T02:07:21.877Z,22.00
2019-02-22T02:12:40.960Z,21.20
2019-02-22T02:17:59.597Z,22.47
2019-02-22T02:23:18.037Z,22.73
2019-02-22T02:28:36.795Z,20.93
2019-02-22T02:33:55.295Z,26.87
2019-02-22T02:39:14.446Z,41.07
2019-02-22T02:44:33.576Z,22.40
2019-02-22T02:49:54.479Z,23.80
2019-02-22T02:55:26.916Z,23.23
2019-02-22T03:00:46.450Z,24.60
2019-02-22T03:06:37.170Z,24.40
2019-02-22T03:11:56.269Z,24.20
2019-02-22T03:17:14.871Z,26.70
2019-02-22T03:22:33.590Z,28.10
2019-02-22T03:27:52.642Z,30.70
2019-02-22T03:33:11.410Z,29.37
2019-02-22T03:38:30.546Z,28.00
2019-02-22T03:43:49.660Z,30.57
2019-02-22T03:49:08.397Z,30.33
2019-02-22T03:54:27.189Z,34.63
2019-02-22T03:59:45.897Z,42.33
2019-02-22T04:05:05.702Z,37.87
2019-02-22T04:10:26.417Z,38.13
2019-02-22T04:15:45.649Z,39.87
2019-02-22T04:21:04.852Z,39.60
2019-02-22T04:26:24.220Z,55.20
2019-02-22T04:31:43.601Z,45.77
2019-02-22T04:37:01.986Z,53.00
2019-02-22T04:42:20.958Z,49.03
2019-02-22T04:47:39.899Z,114.97
2019-02-22T04:52:58.790Z,48.53
2019-02-22T04:58:17.744Z,54.13
2019-02-22T05:03:36.677Z,48.60
2019-02-22T05:08:55.616Z,46.73
2019-02-22T05:14:14.502Z,43.30
2019-02-22T05:19:33.663Z,34.30
2019-02-22T05:30:15.517Z,36.07
2019-02-22T05:35:45.624Z,33.53
2019-02-22T05:41:07.621Z,28.00
2019-02-22T05:46:26.354Z,34.53
2019-02-22T05:51:46.161Z,36.27
2019-02-22T05:57:05.705Z,36.97
2019-02-22T06:02:24.392Z,30.17
2019-02-22T06:07:43.246Z,35.40
2019-02-22T06:13:02.097Z,25.57
2019-02-22T06:18:23.050Z,31.33
2019-02-22T06:23:39.406Z,34.07
2019-02-22T06:28:59.204Z,37.30
2019-02-22T06:34:18.469Z,42.87
2019-02-22T06:39:38.509Z,40.67
2019-02-22T06:44:57.812Z,44.83
2019-02-22T06:50:17.090Z,40.43
2019-02-22T06:55:35.790Z,44.80
2019-02-22T07:00:54.597Z,36.90
2019-02-22T07:06:13.074Z,36.47
2019-02-22T07:11:51.791Z,53.77
2019-02-22T07:17:10.724Z,34.27
2019-02-22T07:22:29.777Z,34.53
2019-02-22T07:27:49.523Z,43.43
2019-02-22T07:33:08.057Z,46.50
2019-02-22T07:38:26.963Z,47.20
2019-02-22T07:43:45.517Z,34.93
2019-02-22T07:49:04.622Z,46.60
2019-02-22T07:54:23.771Z,41.47
2019-02-22T07:59:42.264Z,39.80
2019-02-22T08:05:00.859Z,48.93
2019-02-22T08:10:19.610Z,47.40
2019-02-22T08:15:38.689Z,51.53
2019-02-22T08:20:57.428Z,46.87
2019-02-22T08:26:15.987Z,34.93
2019-02-22T08:31:34.809Z,43.00
2019-02-22T08:36:53.399Z,61.80
2019-02-22T08:42:12.347Z,52.17
2019-02-22T08:47:32.055Z,34.40
2019-02-22T08:52:51.408Z,46.47
2019-02-22T08:58:10.110Z,39.37
2019-02-22T09:03:28.794Z,47.13
2019-02-22T09:08:47.526Z,39.93
2019-02-22T09:14:06.743Z,38.73
2019-02-22T09:19:25.298Z,39.53
2019-02-22T09:24:44.976Z,47.37
2019-02-22T09:30:04.108Z,40.87
2019-02-22T09:35:23.114Z,58.93
2019-02-22T09:40:42.146Z,47.53
2019-02-22T09:46:01.408Z,41.27
2019-02-22T09:51:20.551Z,56.10
2019-02-22T09:56:39.188Z,34.30
2019-02-22T10:01:57.931Z,36.93
2019-02-22T10:07:16.868Z,48.20
2019-02-22T10:12:35.691Z,45.60
2019-02-22T10:17:54.678Z,44.97
2019-02-22T10:23:13.252Z,41.47
2019-02-22T10:28:31.967Z,29.30
2019-02-22T10:33:50.495Z,30.13
2019-02-22T10:39:09.773Z,46.00
2019-02-22T10:44:28.419Z,43.83
2019-02-22T10:49:47.576Z,47.73
2019-02-22T10:55:06.860Z,40.10
2019-02-22T11:00:25.987Z,112.87
2019-02-22T11:05:45.013Z,37.40
2019-02-22T11:11:04.478Z,42.07
2019-02-22T11:16:23.810Z,46.83
2019-02-22T11:21:43.112Z,35.63
2019-02-22T11:27:01.544Z,42.47
2019-02-22T11:32:20.102Z,37.17
2019-02-22T11:37:39.279Z,29.63
2019-02-22T11:42:59.078Z,35.10
2019-02-22T11:48:17.788Z,25.93
2019-02-22T11:53:48.438Z,33.13
2019-02-22T12:05:22.775Z,27.50
2019-02-22T12:10:41.596Z,13.27
2019-02-22T12:16:01.528Z,8.60
2019-02-22T12:21:23.088Z,7.90
2019-02-22T12:26:39.647Z,13.90
2019-02-22T12:32:00.424Z,8.03
2019-02-22T12:37:19.653Z,9.03
2019-02-22T12:42:39.298Z,8.17
2019-02-22T12:47:58.835Z,7.67
2019-02-22T12:53:18.365Z,9.70
2019-02-22T12:58:37.147Z,5.80
2019-02-22T13:03:56.021Z,8.83
2019-02-22T13:09:14.716Z,15.13
2019-02-22T13:14:34.727Z,8.27
2019-02-22T13:19:53.705Z,4.87
2019-02-22T13:25:12.746Z,9.00
2019-02-22T13:30:32.366Z,7.47
2019-02-22T13:35:52.119Z,9.07
2019-02-22T13:41:14.090Z,8.20
2019-02-22T13:46:33.367Z,9.27
2019-02-22T13:51:54.329Z,10.40
2019-02-22T13:57:13.309Z,14.07
2019-02-22T14:02:32.983Z,10.83
2019-02-22T14:07:55.586Z,16.73
2019-02-22T14:13:14.778Z,14.90
2019-02-22T14:18:33.929Z,15.23
2019-02-22T14:23:53.739Z,15.67
2019-02-22T14:29:12.706Z,11.17
2019-02-22T14:34:32.043Z,14.97
2019-02-22T14:40:01.027Z,15.87
2019-02-22T14:45:11.216Z,43.87
2019-02-22T14:50:30.525Z,12.40
2019-02-22T14:55:49.540Z,26.10
2019-02-22T15:01:11.440Z,15.60
2019-02-22T15:06:31.241Z,21.27
2019-02-22T15:11:50.704Z,23.53
2019-02-22T15:17:41.240Z,14.10
2019-02-22T15:23:02.624Z,12.90
2019-02-22T15:28:20.129Z,14.93
2019-02-22T15:33:39.241Z,18.43
2019-02-22T15:38:58.517Z,24.77
2019-02-22T15:50:25.926Z,20.07
2019-02-22T15:55:47.517Z,19.27
2019-02-22T16:01:06.489Z,23.00
2019-02-22T16:06:26.004Z,19.90
2019-02-22T16:11:45.741Z,25.37
2019-02-22T16:17:05.638Z,24.20
2019-02-22T16:22:24.662Z,24.93
2019-02-22T16:27:43.739Z,22.53
2019-02-22T16:33:03.248Z,18.87
2019-02-22T16:38:22.007Z,29.10
2019-02-22T16:43:41.091Z,15.43
2019-02-22T16:48:59.846Z,19.73
2019-02-22T16:54:19.067Z,18.90
2019-02-22T16:59:38.670Z,15.07
2019-02-22T17:04:57.960Z,16.77
2019-02-22T17:10:17.289Z,17.30
2019-02-22T17:15:36.249Z,18.30
2019-02-22T17:20:56.872Z,18.30
2019-02-22T17:26:16.249Z,21.80
2019-02-22T17:31:36.708Z,23.57
2019-02-22T17:36:56.022Z,24.20
2019-02-22T17:42:16.546Z,26.50
2019-02-22T17:47:36.231Z,20.37
2019-02-22T17:52:55.929Z,14.40
2019-02-22T17:58:23.904Z,16.40
2019-02-22T18:03:33.918Z,16.70
2019-02-22T18:08:53.848Z,16.43
2019-02-22T18:14:13.989Z,16.47
2019-02-22T18:19:33.176Z,16.57
2019-02-22T18:24:52.827Z,16.10
2019-02-22T18:30:12.337Z,18.13
2019-02-22T18:35:32.354Z,19.27
2019-02-22T18:40:54.111Z,19.30
2019-02-22T18:46:13.442Z,15.87
2019-02-22T18:51:32.394Z,12.30
2019-02-22T18:56:51.149Z,12.40
2019-02-22T19:02:10.409Z,15.07
2019-02-22T19:07:31.306Z,11.30
2019-02-22T19:12:50.898Z,13.20
2019-02-22T19:18:10.361Z,14.40
2019-02-22T19:23:29.965Z,13.83
2019-02-22T19:28:50.075Z,10.77
2019-02-22T19:34:09.620Z,13.70
2019-02-22T19:39:31.048Z,11.67
2019-02-22T19:44:51.656Z,16.27
2019-02-22T19:50:12.583Z,11.57
2019-02-22T19:55:32.303Z,13.00
2019-02-22T20:00:51.299Z,13.53
2019-02-22T20:06:10.612Z,16.03
2019-02-22T20:11:30.057Z,15.93
2019-02-22T20:16:49.528Z,10.60
2019-02-22T20:22:10.926Z,10.60
2019-02-22T20:27:28.754Z,8.70
2019-02-22T20:32:47.844Z,14.97
2019-02-22T20:38:07.767Z,12.03
2019-02-22T20:43:26.559Z,10.40
2019-02-22T20:48:47.161Z,15.93
2019-02-22T20:54:06.656Z,14.47
2019-02-22T20:59:25.595Z,6.37
2019-02-22T21:04:45.380Z,16.27
2019-02-22T21:10:04.934Z,7.90
2019-02-22T21:15:24.754Z,12.43
2019-02-22T21:20:45.070Z,14.03
2019-02-22T21:26:05.972Z,14.40
2019-02-22T21:31:25.874Z,11.43
2019-02-22T21:36:45.569Z,9.43
2019-02-22T21:42:06.709Z,6.50
2019-02-22T21:47:26.089Z,11.20
2019-02-22T21:52:45.418Z,11.33
2019-02-22T21:58:04.615Z,6.30
2019-02-22T22:03:24.057Z,8.13
2019-02-22T22:08:43.005Z,10.20
2019-02-22T22:14:02.034Z,21.13
2019-02-22T22:19:21.125Z,29.07
2019-02-22T22:24:40.153Z,8.97
2019-02-22T22:29:58.808Z,7.37
2019-02-22T22:35:19.048Z,8.60
2019-02-22T22:40:38.320Z,7.57
2019-02-22T22:45:56.950Z,6.50
2019-02-22T22:51:15.936Z,7.23
2019-02-22T22:56:36.457Z,6.47
2019-02-22T23:01:56.957Z,7.90
2019-02-22T23:07:16.648Z,6.93
2019-02-22T23:12:35.122Z,7.00
2019-02-22T23:17:54.350Z,19.80
2019-02-22T23:23:13.579Z,8.73
2019-02-22T23:28:32.579Z,9.23
2019-02-22T23:33:51.592Z,10.33
2019-02-22T23:39:10.501Z,29.83
2019-02-22T23:44:28.998Z,7.07
2019-02-22T23:49:47.746Z,8.80
2019-02-22T23:55:06.639Z,6.67
